Time;durP1;ratioP1;P1;durP2;ratioP2;P2;SDS_P1;SDS_P2;PMS_P1;PMS_P2;Temp;Humidity;BMP_temperature;BMP_pressure;BME280_temperature;BME280_humidity;BME280_pressure;Samples;Min_cycle;Max_cycle;Signal;HPM_P1;HPM_P2
2024/01/11 00:00:59;;;;;;;;;57.50;45.75;;;;;5.84;80.58;102103.94;2097208;28;45747;-69
2024/01/11 00:02:00;;;;;;;;;71.25;57.25;;;;;5.82;81.01;102106.53;2097583;28;46138;-70
2024/01/11 00:03:00;;;;;;;;;58.25;48.75;;;;;5.84;81.13;102109.22;2097864;28;44977;-69
2024/01/11 00:04:00;;;;;;;;;67.75;54.25;;;;;5.84;80.71;102111.84;2101023;27;45514;-70
2024/01/11 00:05:02;;;;;;;;;60.75;50.75;;;;;5.92;80.33;102115.56;2096544;28;46872;-70
2024/01/11 00:06:04;;;;;;;;;64.00;52.40;;;;;5.94;80.44;102112.94;2097295;28;45659;-69
2024/01/11 00:07:04;;;;;;;;;52.00;43.80;;;;;5.94;80.31;102119.09;2097249;28;45337;-70
2024/01/11 00:08:04;;;;;;;;;64.50;53.25;;;;;5.95;80.44;102112.09;2097400;28;45033;-70
2024/01/11 00:09:05;;;;;;;;;66.75;54.25;;;;;5.94;80.40;102110.31;2097628;28;46299;-70
2024/01/11 00:10:05;;;;;;;;;61.00;49.25;;;;;5.94;80.19;102111.19;2097517;28;45297;-69
2024/01/11 00:11:06;;;;;;;;;61.50;52.50;;;;;5.95;80.47;102107.72;2097393;28;47198;-70
2024/01/11 00:12:06;;;;;;;;;59.25;49.75;;;;;5.97;80.78;102113.91;2097445;28;47060;-70
2024/01/11 00:13:07;;;;;;;;;58.50;48.25;;;;;5.98;80.45;102107.78;2097267;28;45648;-69
2024/01/11 00:14:07;;;;;;;;;58.75;49.75;;;;;5.99;80.79;102108.69;2100581;28;47703;-69
2024/01/11 00:15:08;;;;;;;;;64.50;53.00;;;;;5.99;80.57;102106.03;2095212;28;46906;-71
2024/01/11 00:16:08;;;;;;;;;61.25;49.75;;;;;5.99;80.43;102108.69;2097706;28;45736;-70
2024/01/11 00:17:08;;;;;;;;;67.75;54.25;;;;;5.98;80.56;102105.16;2097499;28;45564;-69
2024/01/11 00:18:09;;;;;;;;;56.25;46.25;;;;;5.97;80.32;102098.13;2096455;28;45347;-69
2024/01/11 00:19:09;;;;;;;;;57.25;47.75;;;;;5.97;80.35;102094.56;2097985;28;46039;-70
2024/01/11 00:20:10;;;;;;;;;57.50;46.50;;;;;5.97;80.46;102094.56;2097416;28;45942;-72
2024/01/11 00:21:11;;;;;;;;;60.40;50.60;;;;;5.96;80.15;102096.31;2097038;28;45799;-71
2024/01/11 00:22:11;;;;;;;;;59.50;50.75;;;;;5.96;80.88;102103.31;2094849;28;46757;-69
2024/01/11 00:23:11;;;;;;;;;65.75;52.25;;;;;5.96;80.48;102100.69;2097855;28;45447;-70
2024/01/11 00:24:12;;;;;;;;;63.25;50.75;;;;;5.94;80.75;102098.03;2098108;28;45685;-70
2024/01/11 00:25:12;;;;;;;;;51.50;45.25;;;;;5.93;80.68;102098.88;2097517;28;45053;-71
2024/01/11 00:26:13;;;;;;;;;65.00;49.50;;;;;5.92;80.38;102099.75;2097373;28;45951;-71
2024/01/11 00:27:13;;;;;;;;;60.50;51.00;;;;;5.91;80.85;102108.50;2098436;28;45977;-70
2024/01/11 00:28:13;;;;;;;;;57.25;46.75;;;;;5.90;80.36;102101.47;2097139;28;46324;-69
2024/01/11 00:29:14;;;;;;;;;58.50;49.00;;;;;5.88;80.75;102106.69;2097613;28;46182;-70
2024/01/11 00:30:14;;;;;;;;;59.75;47.75;;;;;5.88;80.96;102108.44;2097514;28;45548;-71
2024/01/11 00:31:15;;;;;;;;;65.50;53.00;;;;;5.88;80.93;102105.78;2097359;28;45499;-71
2024/01/11 00:32:15;;;;;;;;;65.00;53.00;;;;;5.84;80.62;102107.50;2096920;28;45557;-69
2024/01/11 00:33:16;;;;;;;;;62.25;51.75;;;;;5.85;81.20;102114.53;2088656;28;45401;-69
2024/01/11 00:34:16;;;;;;;;;61.25;49.00;;;;;5.87;80.99;102111.94;2096869;28;45464;-70
2024/01/11 00:35:17;;;;;;;;;58.00;48.00;;;;;5.86;80.73;102108.41;2097534;28;45609;-71
2024/01/11 00:36:19;;;;;;;;;69.25;54.50;;;;;5.85;80.99;102109.25;2096843;28;46294;-68
2024/01/11 00:37:20;;;;;;;;;63.20;51.80;;;;;5.85;81.28;102117.16;2097739;28;46445;-68
2024/01/11 00:38:20;;;;;;;;;67.25;54.50;;;;;5.87;81.55;102123.34;2096803;28;46812;-69
2024/01/11 00:39:21;;;;;;;;;61.50;49.25;;;;;5.87;81.21;102118.09;2096822;28;46184;-70
2024/01/11 00:40:21;;;;;;;;;58.50;48.50;;;;;5.86;81.53;102121.56;2096153;28;46460;-69
2024/01/11 00:41:21;;;;;;;;;59.75;50.50;;;;;5.86;81.16;102124.22;2097101;28;46585;-70
2024/01/11 00:42:22;;;;;;;;;61.25;50.00;;;;;5.86;81.20;102125.97;2097507;28;45786;-68
2024/01/11 00:43:22;;;;;;;;;58.75;49.25;;;;;5.84;81.28;102128.56;2097589;28;45111;-68
2024/01/11 00:44:23;;;;;;;;;38.25;35.25;;;;;5.85;81.53;102130.34;2097335;28;45583;-68
2024/01/11 00:45:23;;;;;;;;;57.25;49.25;;;;;5.86;81.32;102125.97;2097377;28;46415;-67
2024/01/11 00:46:23;;;;;;;;;60.00;49.00;;;;;5.85;81.86;102130.34;2096803;28;46201;-68
2024/01/11 00:47:24;;;;;;;;;59.25;48.25;;;;;5.77;81.92;102128.41;2098075;28;46609;-69
2024/01/11 00:48:24;;;;;;;;;56.00;47.00;;;;;5.76;81.97;102134.53;2097367;28;45848;-69
2024/01/11 00:49:24;;;;;;;;;56.50;46.25;;;;;5.86;81.91;102137.38;2097455;28;46225;-69
2024/01/11 00:50:25;;;;;;;;;60.50;49.00;;;;;5.89;81.93;102136.56;2096305;28;46248;-69
2024/01/11 00:51:25;;;;;;;;;55.00;48.00;;;;;5.89;81.36;102140.06;2097223;28;46981;-68
2024/01/11 00:52:25;;;;;;;;;58.75;46.75;;;;;5.92;81.39;102138.38;2097154;28;46317;-69
2024/01/11 00:53:30;;;;;;;;;50.25;44.50;;;;;5.94;81.49;102137.56;2097304;28;46627;-69
2024/01/11 00:54:30;;;;;;;;;59.20;44.80;;;;;5.95;81.36;102135.81;2097242;28;46362;-68
2024/01/11 00:55:31;;;;;;;;;55.25;46.50;;;;;5.96;81.26;102140.22;2097264;28;45789;-69
2024/01/11 00:56:31;;;;;;;;;54.75;46.50;;;;;5.96;81.57;102134.94;2097179;28;46133;-68
2024/01/11 00:57:31;;;;;;;;;58.75;45.75;;;;;5.98;81.25;102138.53;2097123;28;46345;-70
2024/01/11 00:58:32;;;;;;;;;50.75;43.25;;;;;5.98;81.77;102142.03;2095855;28;47121;-70
2024/01/11 00:59:32;;;;;;;;;53.50;47.00;;;;;5.98;81.26;102143.78;2097246;28;45188;-69
2024/01/11 01:00:32;;;;;;;;;51.75;43.00;;;;;5.98;81.68;102133.25;2098543;28;46289;-69
2024/01/11 01:01:33;;;;;;;;;47.50;39.25;;;;;5.98;81.22;102138.53;2096648;28;46619;-69
2024/01/11 01:02:33;;;;;;;;;57.00;44.50;;;;;5.98;81.02;102142.03;2097829;28;45826;-69
2024/01/11 01:03:33;;;;;;;;;56.25;44.25;;;;;5.97;81.45;102132.38;2097364;28;45435;-67
2024/01/11 01:04:38;;;;;;;;;55.50;45.50;;;;;5.98;81.37;102139.41;2097623;28;45905;-69
2024/01/11 01:05:38;;;;;;;;;48.40;41.00;;;;;5.98;81.06;102138.53;2096940;28;46043;-69
2024/01/11 01:06:39;;;;;;;;;46.00;41.25;;;;;5.97;81.16;102135.00;2096460;28;45481;-69
2024/01/11 01:07:39;;;;;;;;;49.75;41.50;;;;;5.99;81.69;102137.66;2097528;28;45736;-69
2024/01/11 01:08:39;;;;;;;;;51.25;39.75;;;;;5.98;81.37;102141.16;2097210;28;45942;-68
2024/01/11 01:09:40;;;;;;;;;55.50;45.00;;;;;5.97;81.45;102134.09;2097375;28;46013;-69
2024/01/11 01:10:40;;;;;;;;;48.25;41.50;;;;;5.98;81.04;102139.41;2097319;28;45490;-70
2024/01/11 01:11:40;;;;;;;;;47.25;40.75;;;;;5.99;81.41;102137.66;2096710;28;46521;-68
2024/01/11 01:12:41;;;;;;;;;49.75;43.75;;;;;6.00;81.65;102140.31;2097529;28;45821;-68
2024/01/11 01:13:41;;;;;;;;;46.75;41.00;;;;;5.99;81.15;102135.91;2096517;28;45572;-69
2024/01/11 01:14:41;;;;;;;;;54.25;44.75;;;;;5.99;81.26;102135.91;2096642;28;45653;-69
2024/01/11 01:15:42;;;;;;;;;49.25;43.75;;;;;5.98;81.10;102130.63;2097185;27;46255;-68
2024/01/11 01:16:42;;;;;;;;;47.75;40.50;;;;;5.94;81.33;102131.41;2097399;28;45865;-69
2024/01/11 01:17:42;;;;;;;;;41.75;39.25;;;;;5.96;81.84;102127.03;2097355;28;45636;-69
2024/01/11 01:18:43;;;;;;;;;53.75;44.75;;;;;5.97;81.83;102129.72;2096919;28;46394;-69
2024/01/11 01:19:44;;;;;;;;;58.00;47.00;;;;;5.98;81.93;102133.25;2096740;28;45525;-68
2024/01/11 01:20:44;;;;;;;;;51.80;43.40;;;;;5.92;81.99;102128.72;2097359;28;46386;-68
2024/01/11 01:21:44;;;;;;;;;52.00;43.25;;;;;5.98;82.26;102130.63;2096239;28;46007;-68
2024/01/11 01:22:45;;;;;;;;;48.00;39.00;;;;;5.98;82.29;102128.88;2087903;28;46133;-69
2024/01/11 01:23:45;;;;;;;;;55.25;47.75;;;;;6.01;82.20;102134.19;2094022;28;46958;-70
2024/01/11 01:24:45;;;;;;;;;49.50;44.00;;;;;6.01;82.04;102134.19;2095334;28;45791;-70
2024/01/11 01:25:46;;;;;;;;;46.25;41.00;;;;;6.02;82.19;102135.09;2097505;28;46229;-70
2024/01/11 01:26:46;;;;;;;;;51.50;41.25;;;;;6.02;82.19;102133.34;2096828;28;45462;-70
2024/01/11 01:27:46;;;;;;;;;56.25;44.25;;;;;6.03;82.95;102135.09;2096445;28;46150;-70
2024/01/11 01:28:47;;;;;;;;;56.25;46.75;;;;;6.03;82.25;102143.00;2096777;28;45541;-70
2024/01/11 01:29:47;;;;;;;;;36.00;34.00;;;;;6.02;82.55;102138.59;2096330;28;46523;-70
2024/01/11 01:30:47;;;;;;;;;53.00;45.00;;;;;6.02;82.09;102135.97;2097036;28;46552;-70
2024/01/11 01:31:48;;;;;;;;;57.50;45.50;;;;;6.01;82.08;102136.81;2097041;28;46167;-70
2024/01/11 01:32:48;;;;;;;;;51.50;44.00;;;;;6.01;82.20;102139.47;2096638;28;47075;-70
2024/01/11 01:33:49;;;;;;;;;51.75;43.50;;;;;5.99;82.04;102149.09;2096817;28;46393;-69
2024/01/11 01:34:49;;;;;;;;;54.25;45.25;;;;;6.01;82.05;102143.84;2096547;28;45469;-70
2024/01/11 01:35:49;;;;;;;;;53.25;46.50;;;;;6.01;82.78;102146.47;2095283;28;45530;-70
2024/01/11 01:36:50;;;;;;;;;53.00;43.25;;;;;6.01;82.78;102144.72;2096910;28;45723;-70
2024/01/11 01:37:50;;;;;;;;;57.75;48.25;;;;;6.01;82.70;102144.72;2096575;28;46349;-70
2024/01/11 01:38:51;;;;;;;;;51.00;41.75;;;;;6.02;82.42;102142.97;2097591;28;45533;-69
2024/01/11 01:39:51;;;;;;;;;55.50;46.25;;;;;6.00;82.51;102144.72;2097356;28;46115;-69
2024/01/11 01:40:51;;;;;;;;;52.00;43.50;;;;;5.99;82.18;102146.47;2094606;28;47162;-68
2024/01/11 01:41:52;;;;;;;;;52.75;44.75;;;;;6.00;82.53;102155.25;2095519;28;46530;-68
2024/01/11 01:42:58;;;;;;;;;48.50;41.50;;;;;5.99;82.87;102146.47;2098185;28;46531;-70
2024/01/11 01:43:58;;;;;;;;;53.80;46.20;;;;;5.98;82.55;102155.22;2094309;28;46168;-70
2024/01/11 01:44:59;;;;;;;;;56.75;48.25;;;;;5.99;82.36;102150.84;2096282;28;45922;-69
2024/01/11 01:46:00;;;;;;;;;50.00;42.25;;;;;6.00;82.78;102153.50;2096842;28;46234;-70
2024/01/11 01:47:02;;;;;;;;;49.00;42.60;;;;;6.00;82.60;102156.13;2096849;28;47665;-70
2024/01/11 01:48:02;;;;;;;;;51.00;41.60;;;;;6.01;82.63;102170.19;2097043;28;45769;-70
2024/01/11 01:49:03;;;;;;;;;57.50;46.75;;;;;6.01;82.39;102171.09;2095478;28;46878;-70
2024/01/11 01:50:05;;;;;;;;;53.75;44.75;;;;;6.01;82.53;102172.84;2096184;28;45905;-69
2024/01/11 01:51:06;;;;;;;;;55.80;44.00;;;;;6.02;82.09;102174.59;2096498;28;45696;-70
2024/01/11 01:52:07;;;;;;;;;57.80;45.60;;;;;6.02;81.95;102175.50;2088038;28;45321;-70
2024/01/11 01:53:08;;;;;;;;;52.40;45.40;;;;;6.01;82.72;102179.00;2088825;28;45579;-69
2024/01/11 01:54:08;;;;;;;;;59.75;49.00;;;;;6.00;82.51;102177.22;2097339;28;46640;-69
2024/01/11 01:55:10;;;;;;;;;56.00;45.00;;;;;6.02;82.52;102178.13;2096480;28;46460;-70
2024/01/11 01:56:12;;;;;;;;;50.40;40.80;;;;;6.02;82.77;102185.16;2096676;28;46198;-68
2024/01/11 01:57:14;;;;;;;;;58.20;46.60;;;;;6.02;82.08;102182.50;2096813;28;47258;-68
2024/01/11 01:58:17;;;;;;;;;56.80;47.80;;;;;6.01;82.15;102184.25;2096901;28;46392;-69
2024/01/11 01:59:19;;;;;;;;;56.00;48.40;;;;;6.01;82.36;102179.00;2096649;28;45899;-70
2024/01/11 02:00:20;;;;;;;;;48.80;41.80;;;;;6.02;82.49;102179.88;2095616;28;45206;-70
2024/01/11 02:01:21;;;;;;;;;56.75;47.25;;;;;6.03;82.89;102182.53;2095623;28;46123;-70
2024/01/11 02:02:22;;;;;;;;;47.20;40.80;;;;;6.03;82.64;102182.53;2095325;28;46872;-70
2024/01/11 02:03:27;;;;;;;;;55.25;45.00;;;;;6.04;82.72;102188.69;2096876;28;45662;-70
2024/01/11 02:04:28;;;;;;;;;59.40;48.20;;;;;6.03;82.56;102182.53;2089555;28;46022;-70
2024/01/11 02:05:28;;;;;;;;;50.50;44.50;;;;;6.04;82.49;102186.94;2088162;28;45739;-70
2024/01/11 02:06:32;;;;;;;;;55.75;44.50;;;;;6.04;82.61;102184.31;2092035;28;46100;-70
2024/01/11 02:07:32;;;;;;;;;48.00;41.60;;;;;6.04;82.57;102184.31;2105659;27;46499;-70
2024/01/11 02:08:34;;;;;;;;;52.75;44.25;;;;;6.03;82.93;102187.81;2104375;28;47074;-70
2024/01/11 02:09:36;;;;;;;;;58.60;48.20;;;;;6.04;82.34;102191.34;2096640;28;46671;-70
2024/01/11 02:10:37;;;;;;;;;51.00;44.00;;;;;6.03;82.50;102185.19;2096372;28;46330;-70
2024/01/11 02:11:38;;;;;;;;;60.50;48.50;;;;;6.03;82.47;102185.19;2096638;28;46716;-70
2024/01/11 02:12:39;;;;;;;;;52.60;42.40;;;;;6.04;82.17;102196.59;2096361;28;45330;-70
2024/01/11 02:13:40;;;;;;;;;54.50;47.00;;;;;6.04;82.12;102191.34;2096441;28;45654;-70
2024/01/11 02:14:41;;;;;;;;;61.50;49.25;;;;;5.95;82.78;102194.66;2096576;28;46409;-69
2024/01/11 02:15:41;;;;;;;;;55.75;45.00;;;;;5.93;82.63;102199.00;2096889;28;46280;-69
2024/01/11 02:16:41;;;;;;;;;57.00;45.00;;;;;5.92;82.87;102194.59;2097280;28;45830;-71
2024/01/11 02:17:42;;;;;;;;;52.50;44.25;;;;;5.90;82.82;102198.97;2097053;28;45163;-71
2024/01/11 02:18:43;;;;;;;;;55.75;46.25;;;;;5.93;83.02;102198.13;2095463;28;46664;-69
2024/01/11 02:19:44;;;;;;;;;53.00;43.20;;;;;5.99;83.08;102196.53;2097087;28;45717;-70
2024/01/11 02:20:44;;;;;;;;;55.25;45.75;;;;;6.01;83.14;102205.34;2097026;28;45584;-68
2024/01/11 02:21:48;;;;;;;;;48.75;43.25;;;;;6.01;82.83;102204.47;2096718;28;45059;-70
2024/01/11 02:22:54;;;;;;;;;59.80;45.20;;;;;5.95;82.98;102199.94;2097465;28;45582;-70
2024/01/11 02:24:05;;;;;;;;;51.00;43.60;;;;;5.94;83.36;102206.06;2089226;28;46421;-70
2024/01/11 02:25:05;;;;;;;;;55.20;44.80;;;;;5.89;83.47;102202.41;2096800;28;45159;-70
2024/01/11 02:26:06;;;;;;;;;55.50;45.50;;;;;5.84;83.11;102198.78;2096859;28;46374;-71
2024/01/11 02:27:06;;;;;;;;;55.50;44.25;;;;;5.81;83.33;102198.72;2096802;28;46531;-70
2024/01/11 02:28:08;;;;;;;;;52.25;44.00;;;;;5.81;83.89;102206.63;2096024;28;46446;-70
2024/01/11 02:29:08;;;;;;;;;51.20;44.80;;;;;5.86;83.83;102208.50;2095901;28;46203;-70
2024/01/11 02:30:09;;;;;;;;;50.00;43.00;;;;;5.86;83.50;102208.50;2096116;28;46790;-71
2024/01/11 02:31:10;;;;;;;;;46.50;38.25;;;;;5.87;83.12;102212.03;2096618;28;46869;-71
2024/01/11 02:32:11;;;;;;;;;45.60;41.00;;;;;5.85;83.17;102217.28;2095322;28;45335;-71
2024/01/11 02:33:15;;;;;;;;;55.20;46.40;;;;;5.86;83.32;102218.16;2095554;28;46343;-70
2024/01/11 02:34:16;;;;;;;;;43.40;38.80;;;;;5.90;83.24;102213.03;2096154;28;45263;-69
2024/01/11 02:35:18;;;;;;;;;48.75;42.75;;;;;5.92;83.16;102218.31;2094415;28;48075;-70
2024/01/11 02:36:20;;;;;;;;;50.00;44.00;;;;;5.94;82.96;102220.97;2095317;28;46315;-70
2024/01/11 02:37:20;;;;;;;;;44.20;39.20;;;;;5.93;83.10;102219.19;2095650;28;45795;-69
2024/01/11 02:38:21;;;;;;;;;41.25;38.50;;;;;5.92;83.28;102215.69;2095775;28;45858;-69
2024/01/11 02:39:23;;;;;;;;;60.00;48.00;;;;;5.94;83.07;102220.97;2095625;28;45925;-70
2024/01/11 02:40:25;;;;;;;;;51.20;44.80;;;;;5.92;83.27;102210.41;2090303;28;46639;-70
2024/01/11 02:41:25;;;;;;;;;55.80;44.20;;;;;5.91;82.88;102219.19;2088575;28;48150;-69
2024/01/11 02:42:26;;;;;;;;;56.75;47.25;;;;;5.90;82.98;102215.66;2095223;28;46390;-69
2024/01/11 02:43:27;;;;;;;;;58.00;46.80;;;;;5.92;82.96;102220.06;2087917;28;45950;-69
2024/01/11 02:44:27;;;;;;;;;56.50;45.00;;;;;5.92;83.50;102220.06;2087513;28;45486;-70
2024/01/11 02:45:27;;;;;;;;;47.50;41.75;;;;;5.91;83.17;102219.19;2087514;28;46055;-69
2024/01/11 02:46:28;;;;;;;;;48.25;42.00;;;;;5.93;83.33;102220.09;2087613;28;45124;-71
2024/01/11 02:47:28;;;;;;;;;56.75;45.00;;;;;5.92;83.33;102220.94;2088000;28;45244;-70
2024/01/11 02:48:29;;;;;;;;;46.25;40.00;;;;;5.93;83.63;102216.56;2087507;28;45128;-69
2024/01/11 02:49:30;;;;;;;;;56.20;45.40;;;;;5.92;83.65;102218.31;2087162;28;48127;-70
2024/01/11 02:50:30;;;;;;;;;45.50;40.00;;;;;5.91;84.00;102224.44;2095399;28;46359;-70
2024/01/11 02:51:30;;;;;;;;;54.00;45.75;;;;;5.90;83.52;102223.56;2095365;28;46560;-70
2024/01/11 02:52:31;;;;;;;;;57.50;48.75;;;;;5.89;83.92;102220.84;2094485;28;46008;-69
2024/01/11 02:53:34;;;;;;;;;50.25;43.25;;;;;5.86;83.59;102221.69;2095859;28;44974;-68
2024/01/11 02:54:34;;;;;;;;;51.40;43.80;;;;;5.84;83.70;102217.22;2095534;28;46306;-69
2024/01/11 02:55:34;;;;;;;;;52.75;43.75;;;;;5.83;83.83;102216.31;2095438;28;47006;-69
2024/01/11 02:56:35;;;;;;;;;51.50;43.00;;;;;5.82;83.94;102217.19;2095696;28;45806;-69
2024/01/11 02:57:35;;;;;;;;;51.00;45.00;;;;;5.82;84.17;102211.91;2095685;28;45544;-70
2024/01/11 02:58:35;;;;;;;;;54.50;44.00;;;;;5.81;84.21;102209.25;2095542;28;45993;-69
2024/01/11 02:59:36;;;;;;;;;55.50;46.50;;;;;5.79;83.86;102205.69;2095684;28;45795;-70
2024/01/11 03:00:36;;;;;;;;;48.50;42.00;;;;;5.78;83.84;102203.94;2095378;28;45301;-70
2024/01/11 03:01:37;;;;;;;;;53.25;46.75;;;;;5.75;84.03;102215.28;2095396;28;46049;-70
2024/01/11 03:02:38;;;;;;;;;59.00;47.25;;;;;5.74;84.35;102220.53;2096064;28;45893;-70
2024/01/11 03:03:38;;;;;;;;;55.40;44.40;;;;;5.71;84.50;102210.78;2095331;28;46930;-71
2024/01/11 03:04:38;;;;;;;;;55.00;44.25;;;;;5.76;84.97;102219.69;2096433;28;46594;-71
2024/01/11 03:05:39;;;;;;;;;53.25;43.25;;;;;5.81;84.61;102214.53;2096769;28;45199;-71
2024/01/11 03:06:39;;;;;;;;;40.00;30.75;;;;;5.84;84.37;102214.59;2096576;28;46062;-68
2024/01/11 03:07:40;;;;;;;;;50.25;42.75;;;;;5.81;84.88;102218.03;2096674;28;46045;-69
2024/01/11 03:08:40;;;;;;;;;57.50;46.00;;;;;5.82;84.95;102219.81;2093672;28;45808;-71
2024/01/11 03:09:40;;;;;;;;;50.75;44.25;;;;;5.85;84.66;102219.03;2093728;28;46212;-70
2024/01/11 03:10:41;;;;;;;;;57.75;48.25;;;;;5.90;84.28;102220.03;2096924;28;45030;-70
2024/01/11 03:11:41;;;;;;;;;53.25;45.00;;;;;5.92;84.30;102222.69;2096129;28;45987;-69
2024/01/11 03:12:41;;;;;;;;;46.00;41.75;;;;;5.93;84.14;102222.72;2096763;28;47837;-69
2024/01/11 03:13:42;;;;;;;;;37.75;36.50;;;;;5.87;83.92;102227.84;2099232;27;46720;-69
2024/01/11 03:14:43;;;;;;;;;52.40;44.40;;;;;5.80;83.83;102225.91;2099873;28;47481;-69
2024/01/11 03:15:43;;;;;;;;;53.25;44.50;;;;;5.78;84.49;102233.78;2096725;28;47018;-70
2024/01/11 03:16:43;;;;;;;;;56.00;46.25;;;;;5.82;84.57;102230.34;2096285;28;46246;-69
2024/01/11 03:17:44;;;;;;;;;56.25;45.50;;;;;5.89;84.61;102226.13;2096597;28;46555;-69
2024/01/11 03:18:44;;;;;;;;;53.25;44.50;;;;;5.89;84.43;102231.41;2096820;28;46489;-70
2024/01/11 03:19:44;;;;;;;;;52.75;46.50;;;;;5.88;84.57;102229.63;2096641;28;45487;-69
2024/01/11 03:20:45;;;;;;;;;52.25;45.50;;;;;5.88;85.00;102227.00;2096295;28;46279;-69
2024/01/11 03:21:46;;;;;;;;;49.50;39.50;;;;;5.90;84.72;102230.56;2094867;28;45090;-69
2024/01/11 03:22:46;;;;;;;;;51.40;43.00;;;;;5.90;84.86;102226.19;2094822;28;46492;-69
2024/01/11 03:23:47;;;;;;;;;51.75;43.50;;;;;5.93;84.65;102229.75;2096694;28;45802;-70
2024/01/11 03:24:47;;;;;;;;;47.75;41.75;;;;;5.92;84.78;102234.13;2095884;28;45373;-69
2024/01/11 03:25:47;;;;;;;;;58.25;47.50;;;;;5.94;84.98;102228.88;2095616;28;46601;-68
2024/01/11 03:26:48;;;;;;;;;49.25;42.00;;;;;5.93;84.38;102229.75;2095857;28;47707;-69
2024/01/11 03:27:48;;;;;;;;;50.25;43.00;;;;;5.92;84.43;102225.34;2096312;28;46469;-71
2024/01/11 03:28:49;;;;;;;;;46.00;41.50;;;;;5.92;84.61;102222.69;2096390;28;46192;-70
2024/01/11 03:29:49;;;;;;;;;59.75;48.00;;;;;5.92;84.52;102231.50;2096343;28;45229;-71
2024/01/11 03:30:50;;;;;;;;;51.50;45.00;;;;;5.93;84.42;102227.09;2094850;28;46187;-72
2024/01/11 03:31:50;;;;;;;;;53.50;44.25;;;;;5.92;84.29;102231.50;2095325;28;46355;-71
2024/01/11 03:32:50;;;;;;;;;53.00;43.75;;;;;5.92;84.53;102228.84;2095599;28;45720;-70
2024/01/11 03:33:51;;;;;;;;;54.25;44.00;;;;;5.93;84.54;102229.75;2096472;28;46380;-71
2024/01/11 03:34:51;;;;;;;;;51.75;42.00;;;;;5.91;84.34;102229.72;2095451;28;46145;-71
2024/01/11 03:35:51;;;;;;;;;49.75;43.75;;;;;5.90;84.49;102226.19;2096108;28;46082;-70
2024/01/11 03:36:52;;;;;;;;;54.75;45.50;;;;;5.89;83.97;102223.50;2095636;28;46521;-69
2024/01/11 03:37:52;;;;;;;;;50.50;45.25;;;;;5.88;83.99;102227.88;2096212;28;45639;-69
2024/01/11 03:38:52;;;;;;;;;60.50;45.00;;;;;5.87;84.08;102228.72;2092640;28;45062;-69
2024/01/11 03:39:53;;;;;;;;;54.75;46.00;;;;;5.85;83.88;102230.44;2096197;28;45449;-70
2024/01/11 03:40:53;;;;;;;;;51.25;43.00;;;;;5.86;84.17;102226.97;2095880;28;46338;-70
2024/01/11 03:41:53;;;;;;;;;55.25;44.50;;;;;5.87;84.44;102225.22;2094365;28;46197;-70
2024/01/11 03:42:54;;;;;;;;;54.00;44.50;;;;;5.87;84.48;102225.22;2095112;28;46337;-69
2024/01/11 03:43:54;;;;;;;;;53.75;43.50;;;;;5.88;84.47;102234.88;2096183;28;47641;-69
2024/01/11 03:44:55;;;;;;;;;48.50;41.25;;;;;5.87;84.43;102227.84;2096182;28;46556;-69
2024/01/11 03:45:55;;;;;;;;;48.25;39.50;;;;;5.87;84.53;102233.13;2096239;28;46743;-69
2024/01/11 03:46:55;;;;;;;;;57.50;45.00;;;;;5.88;84.42;102235.78;2095894;28;45904;-69
2024/01/11 03:47:56;;;;;;;;;46.50;40.25;;;;;5.89;84.25;102227.03;2095710;28;46430;-69
2024/01/11 03:48:56;;;;;;;;;44.75;41.00;;;;;5.93;84.38;102237.66;2095763;28;45540;-71
2024/01/11 03:49:57;;;;;;;;;49.75;43.75;;;;;5.94;84.53;102236.78;2096209;28;46900;-70
2024/01/11 03:50:57;;;;;;;;;55.00;44.75;;;;;5.93;84.18;102237.66;2096026;28;46424;-70
2024/01/11 03:51:57;;;;;;;;;49.75;43.50;;;;;5.89;84.44;102232.28;2096164;28;45087;-69
2024/01/11 03:52:58;;;;;;;;;49.75;43.25;;;;;5.89;84.29;102228.75;2097583;28;46163;-70
2024/01/11 03:53:58;;;;;;;;;53.75;44.25;;;;;5.88;84.61;102230.50;2097683;28;45514;-70
2024/01/11 03:54:58;;;;;;;;;49.75;43.25;;;;;5.88;84.13;102232.25;2097666;28;46849;-71
2024/01/11 03:55:59;;;;;;;;;51.50;43.25;;;;;5.88;84.65;102229.63;2097208;28;46950;-70
2024/01/11 03:57:00;;;;;;;;;53.20;41.40;;;;;5.87;84.19;102243.66;2098281;28;45609;-69
2024/01/11 03:58:00;;;;;;;;;56.00;44.00;;;;;5.84;84.27;102233.94;2097756;28;45266;-69
2024/01/11 03:59:01;;;;;;;;;56.25;47.25;;;;;5.85;84.31;102232.19;2099055;28;45699;-68
2024/01/11 04:00:01;;;;;;;;;48.75;44.00;;;;;5.83;84.42;102232.13;2102286;28;46545;-68
2024/01/11 04:01:01;;;;;;;;;45.75;40.00;;;;;5.81;84.13;102238.22;2096790;28;46720;-69
2024/01/11 04:02:02;;;;;;;;;57.50;47.25;;;;;5.80;84.41;102231.19;2097304;28;47350;-71
2024/01/11 04:03:02;;;;;;;;;45.75;41.00;;;;;5.78;84.35;102231.16;2094701;28;45276;-70
2024/01/11 04:04:03;;;;;;;;;53.75;45.75;;;;;5.78;84.17;102233.78;2097251;28;46299;-69
2024/01/11 04:05:03;;;;;;;;;55.00;42.50;;;;;5.78;84.39;102240.81;2097932;28;45807;-69
2024/01/11 04:06:04;;;;;;;;;52.50;43.25;;;;;5.76;84.44;102238.16;2097233;28;47174;-68
2024/01/11 04:07:05;;;;;;;;;50.20;43.80;;;;;5.74;84.37;102237.22;2097671;28;45972;-68
2024/01/11 04:08:06;;;;;;;;;56.50;45.75;;;;;5.74;84.08;102237.22;2097525;28;45317;-69
2024/01/11 04:09:07;;;;;;;;;46.80;41.60;;;;;5.73;84.41;102234.56;2096896;28;45621;-69
2024/01/11 04:10:09;;;;;;;;;47.75;40.75;;;;;5.70;84.61;102240.63;2096551;28;46211;-69
2024/01/11 04:11:10;;;;;;;;;56.40;45.00;;;;;5.70;84.42;102237.09;2097682;28;46038;-69
2024/01/11 04:12:10;;;;;;;;;41.25;38.50;;;;;5.70;84.66;102235.34;2097289;28;46453;-69
2024/01/11 04:13:10;;;;;;;;;50.50;42.50;;;;;5.70;85.09;102235.34;2097611;28;45329;-68
2024/01/11 04:14:11;;;;;;;;;50.50;44.50;;;;;5.74;84.83;102244.25;2097453;28;46204;-69
2024/01/11 04:15:13;;;;;;;;;48.75;42.50;;;;;5.75;84.89;102248.66;2097793;28;45476;-70
2024/01/11 04:16:13;;;;;;;;;51.40;41.60;;;;;5.73;85.02;102240.72;2097709;28;46011;-68
2024/01/11 04:17:14;;;;;;;;;49.25;43.00;;;;;5.74;84.76;102244.25;2096912;28;46552;-68
2024/01/11 04:18:14;;;;;;;;;55.75;44.00;;;;;5.72;84.71;102245.94;2097538;28;45491;-68
2024/01/11 04:19:14;;;;;;;;;52.50;43.75;;;;;5.72;84.78;102244.22;2095210;28;45867;-69
2024/01/11 04:20:14;;;;;;;;;49.50;43.00;;;;;5.71;84.92;102239.75;2095188;28;45839;-68
2024/01/11 04:21:22;;;;;;;;;54.25;43.75;;;;;5.73;84.89;102245.09;2093805;28;46602;-67
2024/01/11 04:22:23;;;;;;;;;46.00;41.00;;;;;5.69;84.43;102246.75;2096328;28;45764;-69
2024/01/11 04:23:23;;;;;;;;;50.50;43.25;;;;;5.69;84.72;102249.38;2096562;28;45088;-69
2024/01/11 04:24:23;;;;;;;;;50.50;44.25;;;;;5.69;84.83;102251.13;2097460;28;46476;-68
2024/01/11 04:25:24;;;;;;;;;49.00;43.25;;;;;5.69;84.86;102248.50;2098259;28;46201;-69
2024/01/11 04:26:24;;;;;;;;;48.25;41.50;;;;;5.69;84.68;102248.50;2096884;28;45017;-68
2024/01/11 04:27:24;;;;;;;;;54.50;44.25;;;;;5.69;84.73;102253.75;2097549;28;46441;-69
2024/01/11 04:28:25;;;;;;;;;57.50;47.00;;;;;5.67;84.67;102251.09;2097669;28;45695;-69
2024/01/11 04:29:25;;;;;;;;;49.00;44.00;;;;;5.68;84.46;102255.50;2097903;28;45873;-69
2024/01/11 04:30:26;;;;;;;;;54.75;46.00;;;;;5.66;84.40;102257.22;2097294;28;46348;-68
2024/01/11 04:31:26;;;;;;;;;48.00;40.75;;;;;5.64;84.77;102260.69;2097737;28;45680;-70
2024/01/11 04:32:27;;;;;;;;;54.25;44.25;;;;;5.63;84.25;102259.78;2097259;28;45538;-69
2024/01/11 04:33:27;;;;;;;;;51.25;43.25;;;;;5.62;84.70;102263.28;2096832;28;45815;-69
2024/01/11 04:34:27;;;;;;;;;54.75;47.00;;;;;5.63;84.90;102258.91;2097748;28;46827;-69
2024/01/11 04:35:28;;;;;;;;;48.25;41.75;;;;;5.63;85.19;102264.16;2096766;28;46902;-69
2024/01/11 04:36:28;;;;;;;;;50.75;45.00;;;;;5.63;85.26;102258.91;2096632;28;45609;-70
2024/01/11 04:37:28;;;;;;;;;48.25;43.25;;;;;5.62;85.29;102263.28;2096328;28;46280;-70
2024/01/11 04:38:29;;;;;;;;;49.50;42.00;;;;;5.62;85.12;102260.66;2097295;28;45611;-71
2024/01/11 04:39:29;;;;;;;;;48.00;41.00;;;;;5.61;85.54;102265.03;2096886;28;46678;-71